Aérodrome :
LOGIN :

S'inscrire | Disclaimer

   EN    FR    IT 

 










Légende :    VFR   VFR Marginal   IFR   IFR Intensif   IFR Très Intensif
Visi : 
Plafond : 
>= 8 km
>= 3000ft
5 à 8 km
1000 à 3000 ft
1500m à 5 km
500 à 1000 ft
800 à 1500m
200 à 500 ft
< 800m
< 200 ft
Symboles :   Orages  Brouillard  Fortes neiges  Fortes précipitations  Vent > 20 kt
SIGMETs :   Divers  Orages  Givrage  Turbulence  Onde Orograph.  Cendres Volcan.






- Altitude de l'aérodrome : 3 ft
- Code IATA : DHR


EHKD - Den Helder De Kooy

DERNIER METAR :
  • 301557Z AUTO 28009KT 240V320 9999 SCT013 BKN077 BKN087 17/14 Q1012 GRN TEMPO SCT012

METARs EXPIRÉS :
  • 301525Z AUTO 27007KT 240V310 9999 FEW016 BKN076 OVC130 18/14 Q1012 BLU TEMPO SCT015
  • 301508Z AUTO 27008KT 240V310 9999 BKN076 OVC130 18/14 Q1012 BLU TEMPO SCT015
  • 301455Z AUTO 28007KT 240V330 9999 OVC075 18/14 Q1012 BLU NOSIG
  • 301425Z AUTO 31007KT 260V350 9999 BKN140 OVC330 19/13 Q1012 BLU NOSIG
  • 301355Z AUTO 31007KT 240V020 9999 OVC140 19/14 Q1012 BLU NOSIG
  • 301325Z AUTO 29009KT 250V330 9999 OVC150 18/15 Q1012 BLU TEMPO SCT012

TAF TAF EHKD
Valide du 30 à 13h jusqu'au 01 à 01h UTC


301249Z 3013/0101 29010KT 9999 SCT015
TEMPO 3017/3024 4500 SHRA RA BKN008 OVC010 SCT050CB
PROB40
TEMPO 3017/3024 3000 +SHRA +RA BKN005 OVC006 SCT040CB



MET'MAP, la Météo Aéronautique d'un coup d'oeil ! - Copyright ORBIFLY Décembre 2007 - Disclaimer

ORBIFLY MET'MAP TEAM :

Programmation & Développement : Alexandra Zaïnal
Sur une idée originale de : Baudouin d'Aumeries
Soutien technique & logistique : Manuel Goepfert
Assistance : Marc-Olivier Méhu




SOURCES & CREDITS :

   NOAA